sensor_id;sensor_type;location;lat;lon;timestamp;temperature;humidity
31809;DHT22;18379;48.208;-1.518;2023-07-30T00:03:56;15.40;99.90
31809;DHT22;18379;48.208;-1.518;2023-07-30T00:08:56;15.30;99.90
31809;DHT22;18379;48.208;-1.518;2023-07-30T00:13:57;15.30;99.90
31809;DHT22;18379;48.208;-1.518;2023-07-30T00:18:58;15.20;99.90
31809;DHT22;18379;48.208;-1.518;2023-07-30T00:23:59;15.20;99.90
31809;DHT22;18379;48.208;-1.518;2023-07-30T00:28:59;15.10;99.90
31809;DHT22;18379;48.208;-1.518;2023-07-30T00:34:00;15.10;99.90
31809;DHT22;18379;48.208;-1.518;2023-07-30T00:39:01;15.10;99.90
31809;DHT22;18379;48.208;-1.518;2023-07-30T00:44:02;14.90;99.90
31809;DHT22;18379;48.208;-1.518;2023-07-30T00:49:03;14.90;99.90
31809;DHT22;18379;48.208;-1.518;2023-07-30T00:54:04;14.80;99.90
31809;DHT22;18379;48.208;-1.518;2023-07-30T00:59:05;14.70;99.90
31809;DHT22;18379;48.208;-1.518;2023-07-30T01:04:06;14.70;99.90
31809;DHT22;18379;48.208;-1.518;2023-07-30T01:09:15;14.70;99.90
31809;DHT22;18379;48.208;-1.518;2023-07-30T01:14:16;14.70;99.90
31809;DHT22;18379;48.208;-1.518;2023-07-30T01:19:19;14.60;99.90
31809;DHT22;18379;48.208;-1.518;2023-07-30T01:24:20;14.60;99.90
31809;DHT22;18379;48.208;-1.518;2023-07-30T01:29:42;14.60;99.90
31809;DHT22;18379;48.208;-1.518;2023-07-30T01:34:44;14.70;99.90
31809;DHT22;18379;48.208;-1.518;2023-07-30T01:39:47;14.70;99.90
31809;DHT22;18379;48.208;-1.518;2023-07-30T01:44:48;14.60;99.90
31809;DHT22;18379;48.208;-1.518;2023-07-30T01:49:49;14.60;99.90
31809;DHT22;18379;48.208;-1.518;2023-07-30T01:54:50;14.70;99.90
31809;DHT22;18379;48.208;-1.518;2023-07-30T01:59:50;14.70;99.90
31809;DHT22;18379;48.208;-1.518;2023-07-30T02:04:51;14.70;99.90
31809;DHT22;18379;48.208;-1.518;2023-07-30T02:09:52;14.70;99.90
31809;DHT22;18379;48.208;-1.518;2023-07-30T02:14:53;14.70;99.90
31809;DHT22;18379;48.208;-1.518;2023-07-30T02:19:54;14.70;99.90
31809;DHT22;18379;48.208;-1.518;2023-07-30T02:24:55;14.70;99.90
31809;DHT22;18379;48.208;-1.518;2023-07-30T02:29:57;14.60;99.90
31809;DHT22;18379;48.208;-1.518;2023-07-30T02:34:58;14.70;99.90
31809;DHT22;18379;48.208;-1.518;2023-07-30T02:39:59;14.70;99.90
31809;DHT22;18379;48.208;-1.518;2023-07-30T02:45:00;14.80;99.90
31809;DHT22;18379;48.208;-1.518;2023-07-30T02:50:02;14.80;99.90
31809;DHT22;18379;48.208;-1.518;2023-07-30T02:55:03;14.90;99.90
31809;DHT22;18379;48.208;-1.518;2023-07-30T03:00:05;14.90;99.90
31809;DHT22;18379;48.208;-1.518;2023-07-30T03:05:06;15.00;99.90
31809;DHT22;18379;48.208;-1.518;2023-07-30T03:10:07;15.00;99.90
31809;DHT22;18379;48.208;-1.518;2023-07-30T03:15:08;15.00;99.90
31809;DHT22;18379;48.208;-1.518;2023-07-30T03:20:09;15.10;99.90
31809;DHT22;18379;48.208;-1.518;2023-07-30T03:25:10;15.00;99.90
31809;DHT22;18379;48.208;-1.518;2023-07-30T03:30:11;15.10;99.90
31809;DHT22;18379;48.208;-1.518;2023-07-30T03:35:12;15.00;99.90
31809;DHT22;18379;48.208;-1.518;2023-07-30T03:40:13;15.00;99.90
31809;DHT22;18379;48.208;-1.518;2023-07-30T03:45:13;15.00;99.90
31809;DHT22;18379;48.208;-1.518;2023-07-30T03:50:14;14.90;99.90
31809;DHT22;18379;48.208;-1.518;2023-07-30T03:55:15;14.80;99.90
31809;DHT22;18379;48.208;-1.518;2023-07-30T04:00:16;14.70;99.90
31809;DHT22;18379;48.208;-1.518;2023-07-30T04:05:16;14.70;99.90
31809;DHT22;18379;48.208;-1.518;2023-07-30T04:10:17;14.70;99.90
31809;DHT22;18379;48.208;-1.518;2023-07-30T04:15:18;14.60;99.90
31809;DHT22;18379;48.208;-1.518;2023-07-30T04:20:19;14.50;99.90
31809;DHT22;18379;48.208;-1.518;2023-07-30T04:25:19;14.40;99.90
31809;DHT22;18379;48.208;-1.518;2023-07-30T04:30:21;14.50;99.90
31809;DHT22;18379;48.208;-1.518;2023-07-30T04:35:22;14.50;99.90
31809;DHT22;18379;48.208;-1.518;2023-07-30T04:40:22;14.60;99.90
31809;DHT22;18379;48.208;-1.518;2023-07-30T04:45:23;14.70;99.90
31809;DHT22;18379;48.208;-1.518;2023-07-30T04:50:24;14.70;99.90
31809;DHT22;18379;48.208;-1.518;2023-07-30T04:55:25;14.80;99.90
31809;DHT22;18379;48.208;-1.518;2023-07-30T05:00:26;14.90;99.90
31809;DHT22;18379;48.208;-1.518;2023-07-30T05:05:27;14.90;99.90
31809;DHT22;18379;48.208;-1.518;2023-07-30T05:10:27;15.00;99.90
31809;DHT22;18379;48.208;-1.518;2023-07-30T05:15:28;15.10;99.90
31809;DHT22;18379;48.208;-1.518;2023-07-30T05:20:29;15.00;99.90
31809;DHT22;18379;48.208;-1.518;2023-07-30T05:25:29;15.10;99.90
31809;DHT22;18379;48.208;-1.518;2023-07-30T05:30:30;15.10;99.90
31809;DHT22;18379;48.208;-1.518;2023-07-30T05:35:31;15.20;99.90
31809;DHT22;18379;48.208;-1.518;2023-07-30T05:40:32;15.20;99.90
31809;DHT22;18379;48.208;-1.518;2023-07-30T05:45:34;15.30;99.90
31809;DHT22;18379;48.208;-1.518;2023-07-30T05:50:35;15.40;99.90
31809;DHT22;18379;48.208;-1.518;2023-07-30T05:55:36;15.50;99.90
31809;DHT22;18379;48.208;-1.518;2023-07-30T06:00:37;15.50;99.90
31809;DHT22;18379;48.208;-1.518;2023-07-30T06:05:41;15.50;99.90
31809;DHT22;18379;48.208;-1.518;2023-07-30T06:10:42;15.70;99.90
31809;DHT22;18379;48.208;-1.518;2023-07-30T06:15:43;15.90;99.90
31809;DHT22;18379;48.208;-1.518;2023-07-30T06:20:43;15.80;99.90
31809;DHT22;18379;48.208;-1.518;2023-07-30T06:25:44;15.80;99.90
31809;DHT22;18379;48.208;-1.518;2023-07-30T06:30:45;16.00;99.90
31809;DHT22;18379;48.208;-1.518;2023-07-30T06:35:46;16.20;99.90
31809;DHT22;18379;48.208;-1.518;2023-07-30T06:40:47;16.10;99.90
31809;DHT22;18379;48.208;-1.518;2023-07-30T06:45:48;16.30;99.90
31809;DHT22;18379;48.208;-1.518;2023-07-30T06:50:49;16.40;99.90
31809;DHT22;18379;48.208;-1.518;2023-07-30T06:55:49;16.50;99.90
31809;DHT22;18379;48.208;-1.518;2023-07-30T07:00:50;16.60;99.90
31809;DHT22;18379;48.208;-1.518;2023-07-30T07:05:55;16.60;99.90
31809;DHT22;18379;48.208;-1.518;2023-07-30T07:10:55;16.60;99.90
31809;DHT22;18379;48.208;-1.518;2023-07-30T07:15:56;16.70;99.90
31809;DHT22;18379;48.208;-1.518;2023-07-30T07:20:57;16.80;99.90
31809;DHT22;18379;48.208;-1.518;2023-07-30T07:25:58;16.80;99.90
31809;DHT22;18379;48.208;-1.518;2023-07-30T07:30:59;16.80;99.90
31809;DHT22;18379;48.208;-1.518;2023-07-30T07:36:07;16.90;99.90
31809;DHT22;18379;48.208;-1.518;2023-07-30T07:41:16;17.00;99.90
31809;DHT22;18379;48.208;-1.518;2023-07-30T07:46:17;17.20;99.90
31809;DHT22;18379;48.208;-1.518;2023-07-30T07:51:18;17.00;99.90
31809;DHT22;18379;48.208;-1.518;2023-07-30T07:56:19;17.20;99.90
31809;DHT22;18379;48.208;-1.518;2023-07-30T08:01:19;17.20;99.90
31809;DHT22;18379;48.208;-1.518;2023-07-30T08:06:20;17.40;99.90
31809;DHT22;18379;48.208;-1.518;2023-07-30T08:11:21;17.80;99.90
31809;DHT22;18379;48.208;-1.518;2023-07-30T08:16:22;18.20;99.90
31809;DHT22;18379;48.208;-1.518;2023-07-30T08:21:23;18.30;99.90
31809;DHT22;18379;48.208;-1.518;2023-07-30T08:26:24;18.20;99.90
31809;DHT22;18379;48.208;-1.518;2023-07-30T08:31:25;18.40;99.90
31809;DHT22;18379;48.208;-1.518;2023-07-30T08:36:27;18.80;99.90
31809;DHT22;18379;48.208;-1.518;2023-07-30T08:41:28;18.60;99.90
31809;DHT22;18379;48.208;-1.518;2023-07-30T08:46:28;18.60;99.90
31809;DHT22;18379;48.208;-1.518;2023-07-30T08:51:29;18.60;99.90
31809;DHT22;18379;48.208;-1.518;2023-07-30T08:56:31;18.80;99.90
31809;DHT22;18379;48.208;-1.518;2023-07-30T09:01:37;19.00;99.90
31809;DHT22;18379;48.208;-1.518;2023-07-30T09:06:39;19.20;99.90
31809;DHT22;18379;48.208;-1.518;2023-07-30T09:11:40;19.30;99.90
31809;DHT22;18379;48.208;-1.518;2023-07-30T09:16:42;19.50;99.90
31809;DHT22;18379;48.208;-1.518;2023-07-30T09:21:44;19.70;99.90
31809;DHT22;18379;48.208;-1.518;2023-07-30T09:26:46;19.80;99.90
31809;DHT22;18379;48.208;-1.518;2023-07-30T09:31:48;19.90;99.90
31809;DHT22;18379;48.208;-1.518;2023-07-30T09:36:54;19.80;99.90
31809;DHT22;18379;48.208;-1.518;2023-07-30T09:42:00;20.10;99.90
31809;DHT22;18379;48.208;-1.518;2023-07-30T09:47:02;20.50;99.90
31809;DHT22;18379;48.208;-1.518;2023-07-30T09:52:06;20.50;99.90
31809;DHT22;18379;48.208;-1.518;2023-07-30T09:57:08;20.80;99.90
31809;DHT22;18379;48.208;-1.518;2023-07-30T10:02:14;20.60;99.90
31809;DHT22;18379;48.208;-1.518;2023-07-30T10:07:19;20.40;99.90
31809;DHT22;18379;48.208;-1.518;2023-07-30T10:12:27;20.50;99.90
31809;DHT22;18379;48.208;-1.518;2023-07-30T10:17:32;20.40;99.90
31809;DHT22;18379;48.208;-1.518;2023-07-30T10:22:33;20.50;99.90
31809;DHT22;18379;48.208;-1.518;2023-07-30T10:27:41;20.80;99.90
31809;DHT22;18379;48.208;-1.518;2023-07-30T10:37:58;21.50;99.90
31809;DHT22;18379;48.208;-1.518;2023-07-30T10:42:58;21.30;99.90
31809;DHT22;18379;48.208;-1.518;2023-07-30T10:48:06;20.90;99.90
31809;DHT22;18379;48.208;-1.518;2023-07-30T10:53:08;21.00;99.90
31809;DHT22;18379;48.208;-1.518;2023-07-30T10:58:10;21.20;99.90
31809;DHT22;18379;48.208;-1.518;2023-07-30T11:03:11;21.60;99.90
31809;DHT22;18379;48.208;-1.518;2023-07-30T11:08:12;21.60;99.90
31809;DHT22;18379;48.208;-1.518;2023-07-30T11:13:14;22.00;99.90
31809;DHT22;18379;48.208;-1.518;2023-07-30T11:18:15;22.10;99.90
31809;DHT22;18379;48.208;-1.518;2023-07-30T11:23:22;22.30;99.90
31809;DHT22;18379;48.208;-1.518;2023-07-30T11:28:36;22.40;99.90
31809;DHT22;18379;48.208;-1.518;2023-07-30T11:33:42;22.20;99.90
31809;DHT22;18379;48.208;-1.518;2023-07-30T11:38:45;22.40;99.90
31809;DHT22;18379;48.208;-1.518;2023-07-30T11:43:47;22.70;99.90
31809;DHT22;18379;48.208;-1.518;2023-07-30T11:48:50;22.70;99.90
31809;DHT22;18379;48.208;-1.518;2023-07-30T11:53:53;22.90;99.90
31809;DHT22;18379;48.208;-1.518;2023-07-30T11:58:56;22.90;99.90
31809;DHT22;18379;48.208;-1.518;2023-07-30T12:04:01;22.50;99.90
31809;DHT22;18379;48.208;-1.518;2023-07-30T12:09:15;22.70;99.90
31809;DHT22;18379;48.208;-1.518;2023-07-30T12:14:17;23.30;99.90
31809;DHT22;18379;48.208;-1.518;2023-07-30T12:19:18;23.40;99.90
31809;DHT22;18379;48.208;-1.518;2023-07-30T12:24:19;23.50;99.90
31809;DHT22;18379;48.208;-1.518;2023-07-30T12:29:20;23.00;99.90
31809;DHT22;18379;48.208;-1.518;2023-07-30T12:34:23;22.80;99.90
31809;DHT22;18379;48.208;-1.518;2023-07-30T12:39:24;22.40;99.90
31809;DHT22;18379;48.208;-1.518;2023-07-30T12:44:24;22.00;99.90
31809;DHT22;18379;48.208;-1.518;2023-07-30T12:49:25;21.70;99.90
31809;DHT22;18379;48.208;-1.518;2023-07-30T12:54:26;21.70;99.90
31809;DHT22;18379;48.208;-1.518;2023-07-30T12:59:27;21.80;99.90
31809;DHT22;18379;48.208;-1.518;2023-07-30T13:04:28;21.90;99.90
31809;DHT22;18379;48.208;-1.518;2023-07-30T13:09:29;21.60;99.90
31809;DHT22;18379;48.208;-1.518;2023-07-30T13:14:29;21.20;99.90
31809;DHT22;18379;48.208;-1.518;2023-07-30T13:19:30;20.90;99.90
31809;DHT22;18379;48.208;-1.518;2023-07-30T13:24:33;21.00;99.90
31809;DHT22;18379;48.208;-1.518;2023-07-30T13:29:36;21.70;99.90
31809;DHT22;18379;48.208;-1.518;2023-07-30T13:34:37;22.00;99.90
31809;DHT22;18379;48.208;-1.518;2023-07-30T13:39:40;22.10;99.90
31809;DHT22;18379;48.208;-1.518;2023-07-30T13:44:41;22.00;99.90
31809;DHT22;18379;48.208;-1.518;2023-07-30T13:49:42;22.30;99.90
31809;DHT22;18379;48.208;-1.518;2023-07-30T13:54:43;22.30;99.90
31809;DHT22;18379;48.208;-1.518;2023-07-30T13:59:47;22.60;99.90
31809;DHT22;18379;48.208;-1.518;2023-07-30T14:04:49;22.70;99.90
31809;DHT22;18379;48.208;-1.518;2023-07-30T14:09:50;22.90;99.90
31809;DHT22;18379;48.208;-1.518;2023-07-30T14:14:51;23.10;99.90
31809;DHT22;18379;48.208;-1.518;2023-07-30T14:19:56;22.70;99.90
31809;DHT22;18379;48.208;-1.518;2023-07-30T14:24:57;22.00;99.90
31809;DHT22;18379;48.208;-1.518;2023-07-30T14:29:59;21.50;99.90
31809;DHT22;18379;48.208;-1.518;2023-07-30T14:35:00;21.40;99.90
31809;DHT22;18379;48.208;-1.518;2023-07-30T14:40:01;21.40;99.90
31809;DHT22;18379;48.208;-1.518;2023-07-30T14:45:02;21.20;99.90
31809;DHT22;18379;48.208;-1.518;2023-07-30T14:50:04;21.20;99.90
31809;DHT22;18379;48.208;-1.518;2023-07-30T14:55:06;21.20;99.90
31809;DHT22;18379;48.208;-1.518;2023-07-30T15:00:08;21.90;99.90
31809;DHT22;18379;48.208;-1.518;2023-07-30T15:05:10;22.00;99.90
31809;DHT22;18379;48.208;-1.518;2023-07-30T15:10:11;21.60;99.90
31809;DHT22;18379;48.208;-1.518;2023-07-30T15:15:13;22.10;99.90
31809;DHT22;18379;48.208;-1.518;2023-07-30T15:20:14;22.60;99.90
31809;DHT22;18379;48.208;-1.518;2023-07-30T15:25:15;22.50;99.90
31809;DHT22;18379;48.208;-1.518;2023-07-30T15:30:16;22.40;99.90
31809;DHT22;18379;48.208;-1.518;2023-07-30T15:35:17;22.50;99.90
31809;DHT22;18379;48.208;-1.518;2023-07-30T15:40:18;22.30;99.90
31809;DHT22;18379;48.208;-1.518;2023-07-30T15:45:22;22.40;99.90
31809;DHT22;18379;48.208;-1.518;2023-07-30T15:50:26;22.40;99.90
31809;DHT22;18379;48.208;-1.518;2023-07-30T15:55:31;22.80;99.90
31809;DHT22;18379;48.208;-1.518;2023-07-30T16:00:34;22.80;99.90
31809;DHT22;18379;48.208;-1.518;2023-07-30T16:05:36;22.50;99.90
31809;DHT22;18379;48.208;-1.518;2023-07-30T16:10:37;22.30;99.90
31809;DHT22;18379;48.208;-1.518;2023-07-30T16:15:38;21.90;99.90
31809;DHT22;18379;48.208;-1.518;2023-07-30T16:20:39;21.60;99.90
31809;DHT22;18379;48.208;-1.518;2023-07-30T16:25:40;21.20;99.90
31809;DHT22;18379;48.208;-1.518;2023-07-30T16:30:41;20.90;99.90
31809;DHT22;18379;48.208;-1.518;2023-07-30T16:35:42;21.10;99.90
31809;DHT22;18379;48.208;-1.518;2023-07-30T16:40:43;21.20;99.90
31809;DHT22;18379;48.208;-1.518;2023-07-30T16:45:44;21.20;99.90
31809;DHT22;18379;48.208;-1.518;2023-07-30T16:50:46;21.20;99.90
31809;DHT22;18379;48.208;-1.518;2023-07-30T16:55:47;21.70;99.90
31809;DHT22;18379;48.208;-1.518;2023-07-30T17:00:48;22.10;99.90
31809;DHT22;18379;48.208;-1.518;2023-07-30T17:05:59;22.30;99.90
31809;DHT22;18379;48.208;-1.518;2023-07-30T17:11:05;22.00;99.90
31809;DHT22;18379;48.208;-1.518;2023-07-30T17:16:08;22.30;99.90
31809;DHT22;18379;48.208;-1.518;2023-07-30T17:21:10;22.30;99.90
31809;DHT22;18379;48.208;-1.518;2023-07-30T17:26:12;22.00;99.90
31809;DHT22;18379;48.208;-1.518;2023-07-30T17:31:13;21.70;99.90
31809;DHT22;18379;48.208;-1.518;2023-07-30T17:36:15;21.60;99.90
31809;DHT22;18379;48.208;-1.518;2023-07-30T17:41:15;21.40;99.90
31809;DHT22;18379;48.208;-1.518;2023-07-30T17:46:16;21.60;99.90
31809;DHT22;18379;48.208;-1.518;2023-07-30T17:51:21;22.30;99.90
31809;DHT22;18379;48.208;-1.518;2023-07-30T17:56:22;22.50;99.90
31809;DHT22;18379;48.208;-1.518;2023-07-30T18:01:23;22.80;99.90
31809;DHT22;18379;48.208;-1.518;2023-07-30T18:06:24;22.20;99.90
31809;DHT22;18379;48.208;-1.518;2023-07-30T18:11:25;21.90;99.90
31809;DHT22;18379;48.208;-1.518;2023-07-30T18:16:26;22.30;99.90
31809;DHT22;18379;48.208;-1.518;2023-07-30T18:21:26;22.20;99.90
31809;DHT22;18379;48.208;-1.518;2023-07-30T18:26:28;21.60;99.90
31809;DHT22;18379;48.208;-1.518;2023-07-30T18:31:30;21.40;99.90
31809;DHT22;18379;48.208;-1.518;2023-07-30T18:36:34;21.20;99.90
31809;DHT22;18379;48.208;-1.518;2023-07-30T18:41:35;21.00;99.90
31809;DHT22;18379;48.208;-1.518;2023-07-30T18:46:38;21.00;99.90
31809;DHT22;18379;48.208;-1.518;2023-07-30T18:51:40;20.80;99.90
31809;DHT22;18379;48.208;-1.518;2023-07-30T18:56:41;20.70;99.90
31809;DHT22;18379;48.208;-1.518;2023-07-30T19:01:43;20.60;99.90
31809;DHT22;18379;48.208;-1.518;2023-07-30T19:06:44;20.50;99.90
31809;DHT22;18379;48.208;-1.518;2023-07-30T19:11:45;20.40;99.90
31809;DHT22;18379;48.208;-1.518;2023-07-30T19:16:46;20.20;99.90
31809;DHT22;18379;48.208;-1.518;2023-07-30T19:21:47;20.20;99.90
31809;DHT22;18379;48.208;-1.518;2023-07-30T19:26:48;20.10;99.90
31809;DHT22;18379;48.208;-1.518;2023-07-30T19:31:49;19.90;99.90
31809;DHT22;18379;48.208;-1.518;2023-07-30T19:36:50;19.80;99.90
31809;DHT22;18379;48.208;-1.518;2023-07-30T19:41:50;19.80;99.90
31809;DHT22;18379;48.208;-1.518;2023-07-30T19:46:52;19.70;99.90
31809;DHT22;18379;48.208;-1.518;2023-07-30T19:51:53;19.70;99.90
31809;DHT22;18379;48.208;-1.518;2023-07-30T19:56:54;19.60;99.90
31809;DHT22;18379;48.208;-1.518;2023-07-30T20:01:56;19.50;99.90
31809;DHT22;18379;48.208;-1.518;2023-07-30T20:06:57;19.40;99.90
31809;DHT22;18379;48.208;-1.518;2023-07-30T20:11:58;19.40;99.90
31809;DHT22;18379;48.208;-1.518;2023-07-30T20:16:59;19.20;99.90
31809;DHT22;18379;48.208;-1.518;2023-07-30T20:22:00;19.10;99.90
31809;DHT22;18379;48.208;-1.518;2023-07-30T20:27:01;19.00;99.90
31809;DHT22;18379;48.208;-1.518;2023-07-30T20:32:02;19.00;99.90
31809;DHT22;18379;48.208;-1.518;2023-07-30T20:37:03;19.00;99.90
31809;DHT22;18379;48.208;-1.518;2023-07-30T20:42:04;18.90;99.90
31809;DHT22;18379;48.208;-1.518;2023-07-30T20:47:05;18.90;99.90
31809;DHT22;18379;48.208;-1.518;2023-07-30T20:52:12;18.90;99.90
31809;DHT22;18379;48.208;-1.518;2023-07-30T20:57:12;18.80;99.90
31809;DHT22;18379;48.208;-1.518;2023-07-30T21:02:14;18.60;99.90
31809;DHT22;18379;48.208;-1.518;2023-07-30T21:07:15;18.50;99.90
31809;DHT22;18379;48.208;-1.518;2023-07-30T21:12:16;18.30;99.90
31809;DHT22;18379;48.208;-1.518;2023-07-30T21:17:18;18.30;99.90
31809;DHT22;18379;48.208;-1.518;2023-07-30T21:22:19;18.20;99.90
31809;DHT22;18379;48.208;-1.518;2023-07-30T21:27:20;18.10;99.90
31809;DHT22;18379;48.208;-1.518;2023-07-30T21:32:21;18.00;99.90
31809;DHT22;18379;48.208;-1.518;2023-07-30T21:37:23;17.90;99.90
31809;DHT22;18379;48.208;-1.518;2023-07-30T21:42:24;17.90;99.90
31809;DHT22;18379;48.208;-1.518;2023-07-30T21:47:26;17.70;99.90
31809;DHT22;18379;48.208;-1.518;2023-07-30T21:52:28;17.70;99.90
31809;DHT22;18379;48.208;-1.518;2023-07-30T21:57:30;17.50;99.90
31809;DHT22;18379;48.208;-1.518;2023-07-30T22:02:31;17.50;99.90
31809;DHT22;18379;48.208;-1.518;2023-07-30T22:07:32;17.50;99.90
31809;DHT22;18379;48.208;-1.518;2023-07-30T22:12:33;17.50;99.90
31809;DHT22;18379;48.208;-1.518;2023-07-30T22:17:34;17.50;99.90
31809;DHT22;18379;48.208;-1.518;2023-07-30T22:22:35;17.50;99.90
31809;DHT22;18379;48.208;-1.518;2023-07-30T22:27:37;17.40;99.90
31809;DHT22;18379;48.208;-1.518;2023-07-30T22:32:38;17.40;99.90
31809;DHT22;18379;48.208;-1.518;2023-07-30T22:37:39;17.40;99.90
31809;DHT22;18379;48.208;-1.518;2023-07-30T22:42:40;17.30;99.90
31809;DHT22;18379;48.208;-1.518;2023-07-30T22:47:40;17.30;99.90
31809;DHT22;18379;48.208;-1.518;2023-07-30T22:52:41;17.40;99.90
31809;DHT22;18379;48.208;-1.518;2023-07-30T22:57:42;17.30;99.90
31809;DHT22;18379;48.208;-1.518;2023-07-30T23:02:43;17.30;99.90
31809;DHT22;18379;48.208;-1.518;2023-07-30T23:07:44;17.30;99.90
31809;DHT22;18379;48.208;-1.518;2023-07-30T23:12:45;17.30;99.90
31809;DHT22;18379;48.208;-1.518;2023-07-30T23:17:46;17.30;99.90
31809;DHT22;18379;48.208;-1.518;2023-07-30T23:22:47;17.30;99.90
31809;DHT22;18379;48.208;-1.518;2023-07-30T23:27:48;17.40;99.90
31809;DHT22;18379;48.208;-1.518;2023-07-30T23:32:49;17.40;99.90
31809;DHT22;18379;48.208;-1.518;2023-07-30T23:37:49;17.50;99.90
31809;DHT22;18379;48.208;-1.518;2023-07-30T23:42:50;17.50;99.90
31809;DHT22;18379;48.208;-1.518;2023-07-30T23:47:51;17.60;99.90
31809;DHT22;18379;48.208;-1.518;2023-07-30T23:52:52;17.50;99.90
31809;DHT22;18379;48.208;-1.518;2023-07-30T23:57:53;17.40;99.90
